sensor_id;sensor_type;location;lat;lon;timestamp;temperature;humidity
17039;DHT22;8636;55.750;13.202;2024-01-25T00:00:51;6.60;99.90
17039;DHT22;8636;55.750;13.202;2024-01-25T00:03:21;6.60;99.90
17039;DHT22;8636;55.750;13.202;2024-01-25T00:05:56;6.60;99.90
17039;DHT22;8636;55.750;13.202;2024-01-25T00:08:31;6.60;99.90
17039;DHT22;8636;55.750;13.202;2024-01-25T00:11:05;6.50;99.90
17039;DHT22;8636;55.750;13.202;2024-01-25T00:13:34;6.50;99.90
17039;DHT22;8636;55.750;13.202;2024-01-25T00:16:08;6.50;99.90
17039;DHT22;8636;55.750;13.202;2024-01-25T00:18:38;6.50;99.90
17039;DHT22;8636;55.750;13.202;2024-01-25T00:21:12;6.50;99.90
17039;DHT22;8636;55.750;13.202;2024-01-25T00:23:40;6.50;99.90
17039;DHT22;8636;55.750;13.202;2024-01-25T00:26:14;6.50;99.90
17039;DHT22;8636;55.750;13.202;2024-01-25T00:28:42;6.50;99.90
17039;DHT22;8636;55.750;13.202;2024-01-25T00:31:17;6.50;99.90
17039;DHT22;8636;55.750;13.202;2024-01-25T00:33:46;6.50;99.90
17039;DHT22;8636;55.750;13.202;2024-01-25T00:36:21;6.50;99.90
17039;DHT22;8636;55.750;13.202;2024-01-25T00:38:50;6.50;99.90
17039;DHT22;8636;55.750;13.202;2024-01-25T00:41:26;6.50;99.90
17039;DHT22;8636;55.750;13.202;2024-01-25T00:43:55;6.50;99.90
17039;DHT22;8636;55.750;13.202;2024-01-25T00:46:30;6.50;99.90
17039;DHT22;8636;55.750;13.202;2024-01-25T00:48:59;6.50;99.90
17039;DHT22;8636;55.750;13.202;2024-01-25T00:51:36;6.50;99.90
17039;DHT22;8636;55.750;13.202;2024-01-25T00:54:04;6.50;99.90
17039;DHT22;8636;55.750;13.202;2024-01-25T00:56:40;6.40;99.90
17039;DHT22;8636;55.750;13.202;2024-01-25T00:59:08;6.50;99.90
17039;DHT22;8636;55.750;13.202;2024-01-25T01:01:46;6.50;99.90
17039;DHT22;8636;55.750;13.202;2024-01-25T01:04:18;6.40;99.90
17039;DHT22;8636;55.750;13.202;2024-01-25T01:07:00;6.40;99.90
17039;DHT22;8636;55.750;13.202;2024-01-25T01:09:28;6.50;99.90
17039;DHT22;8636;55.750;13.202;2024-01-25T01:12:03;6.50;99.90
17039;DHT22;8636;55.750;13.202;2024-01-25T01:14:31;6.50;99.90
17039;DHT22;8636;55.750;13.202;2024-01-25T01:17:05;6.50;99.90
17039;DHT22;8636;55.750;13.202;2024-01-25T01:19:35;6.40;99.90
17039;DHT22;8636;55.750;13.202;2024-01-25T01:22:10;6.40;99.90
17039;DHT22;8636;55.750;13.202;2024-01-25T01:24:38;6.50;99.90
17039;DHT22;8636;55.750;13.202;2024-01-25T01:27:12;6.50;99.90
17039;DHT22;8636;55.750;13.202;2024-01-25T01:29:41;6.40;99.90
17039;DHT22;8636;55.750;13.202;2024-01-25T01:32:16;6.50;99.90
17039;DHT22;8636;55.750;13.202;2024-01-25T01:34:46;6.50;99.90
17039;DHT22;8636;55.750;13.202;2024-01-25T01:37:20;6.50;99.90
17039;DHT22;8636;55.750;13.202;2024-01-25T01:39:49;6.50;99.90
17039;DHT22;8636;55.750;13.202;2024-01-25T01:42:23;6.50;99.90
17039;DHT22;8636;55.750;13.202;2024-01-25T01:44:52;6.50;99.90
17039;DHT22;8636;55.750;13.202;2024-01-25T01:47:26;6.50;99.90
17039;DHT22;8636;55.750;13.202;2024-01-25T01:49:56;6.60;99.90
17039;DHT22;8636;55.750;13.202;2024-01-25T01:52:31;6.60;99.90
17039;DHT22;8636;55.750;13.202;2024-01-25T01:54:59;6.60;99.90
17039;DHT22;8636;55.750;13.202;2024-01-25T01:57:34;6.50;99.90
17039;DHT22;8636;55.750;13.202;2024-01-25T02:00:03;6.60;99.90
17039;DHT22;8636;55.750;13.202;2024-01-25T02:02:42;6.60;99.90
17039;DHT22;8636;55.750;13.202;2024-01-25T02:05:11;6.60;99.90
17039;DHT22;8636;55.750;13.202;2024-01-25T02:07:53;6.60;99.90
17039;DHT22;8636;55.750;13.202;2024-01-25T02:10:21;6.60;99.90
17039;DHT22;8636;55.750;13.202;2024-01-25T02:12:56;6.60;99.90
17039;DHT22;8636;55.750;13.202;2024-01-25T02:15:24;6.70;99.90
17039;DHT22;8636;55.750;13.202;2024-01-25T02:18:14;6.70;99.90
17039;DHT22;8636;55.750;13.202;2024-01-25T02:20:57;6.60;99.90
17039;DHT22;8636;55.750;13.202;2024-01-25T02:23:33;6.60;99.90
17039;DHT22;8636;55.750;13.202;2024-01-25T02:26:01;6.70;99.90
17039;DHT22;8636;55.750;13.202;2024-01-25T02:28:35;6.60;99.90
17039;DHT22;8636;55.750;13.202;2024-01-25T02:31:04;6.60;99.90
17039;DHT22;8636;55.750;13.202;2024-01-25T02:33:39;6.60;99.90
17039;DHT22;8636;55.750;13.202;2024-01-25T02:36:07;6.60;99.90
17039;DHT22;8636;55.750;13.202;2024-01-25T02:38:43;6.60;99.90
17039;DHT22;8636;55.750;13.202;2024-01-25T02:41:11;6.60;99.90
17039;DHT22;8636;55.750;13.202;2024-01-25T02:43:45;6.60;99.90
17039;DHT22;8636;55.750;13.202;2024-01-25T02:46:13;6.50;99.90
17039;DHT22;8636;55.750;13.202;2024-01-25T02:48:47;6.50;99.90
17039;DHT22;8636;55.750;13.202;2024-01-25T02:51:15;6.50;99.90
17039;DHT22;8636;55.750;13.202;2024-01-25T02:53:53;6.40;99.90
17039;DHT22;8636;55.750;13.202;2024-01-25T02:56:21;6.40;99.90
17039;DHT22;8636;55.750;13.202;2024-01-25T02:58:55;6.30;99.90
17039;DHT22;8636;55.750;13.202;2024-01-25T03:01:23;6.40;99.90
17039;DHT22;8636;55.750;13.202;2024-01-25T03:03:51;6.30;99.90
17039;DHT22;8636;55.750;13.202;2024-01-25T03:06:32;6.30;99.90
17039;DHT22;8636;55.750;13.202;2024-01-25T03:09:02;6.30;99.90
17039;DHT22;8636;55.750;13.202;2024-01-25T03:11:37;6.30;99.90
17039;DHT22;8636;55.750;13.202;2024-01-25T03:14:05;6.20;99.90
17039;DHT22;8636;55.750;13.202;2024-01-25T03:16:40;6.20;99.90
17039;DHT22;8636;55.750;13.202;2024-01-25T03:19:07;6.20;99.90
17039;DHT22;8636;55.750;13.202;2024-01-25T03:21:48;6.20;99.90
17039;DHT22;8636;55.750;13.202;2024-01-25T03:24:17;6.20;99.90
17039;DHT22;8636;55.750;13.202;2024-01-25T03:26:51;6.20;99.90
17039;DHT22;8636;55.750;13.202;2024-01-25T03:29:19;6.10;99.90
17039;DHT22;8636;55.750;13.202;2024-01-25T03:31:53;6.10;99.90
17039;DHT22;8636;55.750;13.202;2024-01-25T03:34:21;6.10;99.90
17039;DHT22;8636;55.750;13.202;2024-01-25T03:36:56;6.10;99.90
17039;DHT22;8636;55.750;13.202;2024-01-25T03:39:26;6.20;99.90
17039;DHT22;8636;55.750;13.202;2024-01-25T03:42:01;6.20;99.90
17039;DHT22;8636;55.750;13.202;2024-01-25T03:44:29;6.20;99.90
17039;DHT22;8636;55.750;13.202;2024-01-25T03:47:04;6.20;99.90
17039;DHT22;8636;55.750;13.202;2024-01-25T03:49:32;6.20;99.90
17039;DHT22;8636;55.750;13.202;2024-01-25T03:52:07;6.20;99.90
17039;DHT22;8636;55.750;13.202;2024-01-25T03:54:36;6.20;99.90
17039;DHT22;8636;55.750;13.202;2024-01-25T03:57:10;6.20;99.90
17039;DHT22;8636;55.750;13.202;2024-01-25T03:59:40;6.20;99.90
17039;DHT22;8636;55.750;13.202;2024-01-25T04:02:15;6.30;99.90
17039;DHT22;8636;55.750;13.202;2024-01-25T04:04:43;6.20;99.90
17039;DHT22;8636;55.750;13.202;2024-01-25T04:07:17;6.20;99.90
17039;DHT22;8636;55.750;13.202;2024-01-25T04:09:47;6.20;99.90
17039;DHT22;8636;55.750;13.202;2024-01-25T04:12:24;6.30;99.90
17039;DHT22;8636;55.750;13.202;2024-01-25T04:14:52;6.20;99.90
17039;DHT22;8636;55.750;13.202;2024-01-25T04:17:26;6.20;99.90
17039;DHT22;8636;55.750;13.202;2024-01-25T04:19:54;6.20;99.90
17039;DHT22;8636;55.750;13.202;2024-01-25T04:22:29;6.20;99.90
17039;DHT22;8636;55.750;13.202;2024-01-25T04:24:58;6.10;99.90
17039;DHT22;8636;55.750;13.202;2024-01-25T04:27:40;6.10;99.90
17039;DHT22;8636;55.750;13.202;2024-01-25T04:30:08;6.00;99.90
17039;DHT22;8636;55.750;13.202;2024-01-25T04:32:42;5.90;99.90
17039;DHT22;8636;55.750;13.202;2024-01-25T04:35:11;5.90;99.90
17039;DHT22;8636;55.750;13.202;2024-01-25T04:37:45;5.90;99.90
17039;DHT22;8636;55.750;13.202;2024-01-25T04:40:15;5.90;99.90
17039;DHT22;8636;55.750;13.202;2024-01-25T04:42:49;5.80;99.90
17039;DHT22;8636;55.750;13.202;2024-01-25T04:45:18;5.80;99.90
17039;DHT22;8636;55.750;13.202;2024-01-25T04:47:52;5.80;99.90
17039;DHT22;8636;55.750;13.202;2024-01-25T04:50:20;5.70;99.90
17039;DHT22;8636;55.750;13.202;2024-01-25T04:52:55;5.70;99.90
17039;DHT22;8636;55.750;13.202;2024-01-25T04:55:24;5.70;99.90
17039;DHT22;8636;55.750;13.202;2024-01-25T04:57:58;5.70;99.90
17039;DHT22;8636;55.750;13.202;2024-01-25T05:00:27;5.60;99.90
17039;DHT22;8636;55.750;13.202;2024-01-25T05:03:02;5.70;99.90
17039;DHT22;8636;55.750;13.202;2024-01-25T05:05:29;5.60;99.90
17039;DHT22;8636;55.750;13.202;2024-01-25T05:08:10;5.60;99.90
17039;DHT22;8636;55.750;13.202;2024-01-25T05:10:40;5.60;99.90
17039;DHT22;8636;55.750;13.202;2024-01-25T05:13:15;5.60;99.90
17039;DHT22;8636;55.750;13.202;2024-01-25T05:15:43;5.50;99.90
17039;DHT22;8636;55.750;13.202;2024-01-25T05:18:17;5.50;99.90
17039;DHT22;8636;55.750;13.202;2024-01-25T05:20:45;5.50;99.90
17039;DHT22;8636;55.750;13.202;2024-01-25T05:23:22;5.50;99.90
17039;DHT22;8636;55.750;13.202;2024-01-25T05:25:51;5.50;99.90
17039;DHT22;8636;55.750;13.202;2024-01-25T05:28:25;5.50;99.90
17039;DHT22;8636;55.750;13.202;2024-01-25T05:30:53;5.40;99.90
17039;DHT22;8636;55.750;13.202;2024-01-25T05:33:31;5.30;99.90
17039;DHT22;8636;55.750;13.202;2024-01-25T05:35:59;5.30;99.90
17039;DHT22;8636;55.750;13.202;2024-01-25T05:38:34;5.40;99.90
17039;DHT22;8636;55.750;13.202;2024-01-25T05:41:03;5.40;99.90
17039;DHT22;8636;55.750;13.202;2024-01-25T05:43:37;5.30;99.90
17039;DHT22;8636;55.750;13.202;2024-01-25T05:46:05;5.40;99.90
17039;DHT22;8636;55.750;13.202;2024-01-25T05:48:39;5.50;99.90
17039;DHT22;8636;55.750;13.202;2024-01-25T05:51:08;5.40;99.90
17039;DHT22;8636;55.750;13.202;2024-01-25T05:53:42;5.40;99.90
17039;DHT22;8636;55.750;13.202;2024-01-25T05:56:12;5.50;99.90
17039;DHT22;8636;55.750;13.202;2024-01-25T05:58:46;5.50;99.90
17039;DHT22;8636;55.750;13.202;2024-01-25T06:01:15;5.60;99.90
17039;DHT22;8636;55.750;13.202;2024-01-25T06:03:50;5.60;99.90
17039;DHT22;8636;55.750;13.202;2024-01-25T06:06:18;5.60;99.90
17039;DHT22;8636;55.750;13.202;2024-01-25T06:09:00;5.60;99.90
17039;DHT22;8636;55.750;13.202;2024-01-25T06:11:40;5.60;99.90
17039;DHT22;8636;55.750;13.202;2024-01-25T06:14:14;5.60;99.90
17039;DHT22;8636;55.750;13.202;2024-01-25T06:16:42;5.60;99.90
17039;DHT22;8636;55.750;13.202;2024-01-25T06:19:18;5.60;99.90
17039;DHT22;8636;55.750;13.202;2024-01-25T06:21:46;5.60;99.90
17039;DHT22;8636;55.750;13.202;2024-01-25T06:24:22;5.60;99.90
17039;DHT22;8636;55.750;13.202;2024-01-25T06:26:52;5.60;99.90
17039;DHT22;8636;55.750;13.202;2024-01-25T06:29:26;5.60;99.90
17039;DHT22;8636;55.750;13.202;2024-01-25T06:31:54;5.60;99.90
17039;DHT22;8636;55.750;13.202;2024-01-25T06:34:36;5.70;99.90
17039;DHT22;8636;55.750;13.202;2024-01-25T06:37:04;5.60;99.90
17039;DHT22;8636;55.750;13.202;2024-01-25T06:39:42;5.70;99.90
17039;DHT22;8636;55.750;13.202;2024-01-25T06:42:12;5.70;99.90
17039;DHT22;8636;55.750;13.202;2024-01-25T06:45:03;5.70;99.90
17039;DHT22;8636;55.750;13.202;2024-01-25T06:47:32;5.70;99.90
17039;DHT22;8636;55.750;13.202;2024-01-25T06:50:13;5.70;99.90
17039;DHT22;8636;55.750;13.202;2024-01-25T06:52:48;5.60;99.90
17039;DHT22;8636;55.750;13.202;2024-01-25T06:55:41;5.50;99.90
17039;DHT22;8636;55.750;13.202;2024-01-25T06:58:17;5.50;99.90
17039;DHT22;8636;55.750;13.202;2024-01-25T07:00:52;5.50;99.90
17039;DHT22;8636;55.750;13.202;2024-01-25T07:03:20;5.40;99.90
17039;DHT22;8636;55.750;13.202;2024-01-25T07:05:51;5.40;99.90
17039;DHT22;8636;55.750;13.202;2024-01-25T07:08:32;5.30;99.90
17039;DHT22;8636;55.750;13.202;2024-01-25T07:11:01;5.30;99.90
17039;DHT22;8636;55.750;13.202;2024-01-25T07:13:37;5.20;99.90
17039;DHT22;8636;55.750;13.202;2024-01-25T07:16:06;5.30;99.90
17039;DHT22;8636;55.750;13.202;2024-01-25T07:18:34;5.30;99.90
17039;DHT22;8636;55.750;13.202;2024-01-25T07:21:09;5.20;99.90
17039;DHT22;8636;55.750;13.202;2024-01-25T07:23:37;5.20;99.90
17039;DHT22;8636;55.750;13.202;2024-01-25T07:26:16;5.10;99.90
17039;DHT22;8636;55.750;13.202;2024-01-25T07:28:46;5.10;99.90
17039;DHT22;8636;55.750;13.202;2024-01-25T07:31:21;5.20;99.90
17039;DHT22;8636;55.750;13.202;2024-01-25T07:33:49;5.20;99.90
17039;DHT22;8636;55.750;13.202;2024-01-25T07:36:24;5.20;99.90
17039;DHT22;8636;55.750;13.202;2024-01-25T07:38:52;5.20;99.90
17039;DHT22;8636;55.750;13.202;2024-01-25T07:41:26;5.20;99.90
17039;DHT22;8636;55.750;13.202;2024-01-25T07:43:56;5.20;99.90
17039;DHT22;8636;55.750;13.202;2024-01-25T07:46:23;5.30;99.90
17039;DHT22;8636;55.750;13.202;2024-01-25T07:48:57;5.30;99.90
17039;DHT22;8636;55.750;13.202;2024-01-25T07:51:26;5.20;99.90
17039;DHT22;8636;55.750;13.202;2024-01-25T07:54:02;5.20;99.90
17039;DHT22;8636;55.750;13.202;2024-01-25T07:56:30;5.20;99.90
17039;DHT22;8636;55.750;13.202;2024-01-25T07:59:06;5.20;99.90
17039;DHT22;8636;55.750;13.202;2024-01-25T08:01:35;5.20;99.90
17039;DHT22;8636;55.750;13.202;2024-01-25T08:04:10;5.20;99.90
17039;DHT22;8636;55.750;13.202;2024-01-25T08:06:38;5.10;99.90
17039;DHT22;8636;55.750;13.202;2024-01-25T08:09:13;5.20;99.90
17039;DHT22;8636;55.750;13.202;2024-01-25T08:11:41;5.20;99.90
17039;DHT22;8636;55.750;13.202;2024-01-25T08:14:17;5.20;99.90
17039;DHT22;8636;55.750;13.202;2024-01-25T08:16:45;5.10;99.90
17039;DHT22;8636;55.750;13.202;2024-01-25T08:19:19;5.10;99.90
17039;DHT22;8636;55.750;13.202;2024-01-25T08:21:48;5.10;99.90
17039;DHT22;8636;55.750;13.202;2024-01-25T08:24:23;5.20;99.90
17039;DHT22;8636;55.750;13.202;2024-01-25T08:26:51;5.20;99.90
17039;DHT22;8636;55.750;13.202;2024-01-25T08:29:26;5.20;99.90
17039;DHT22;8636;55.750;13.202;2024-01-25T08:31:54;5.20;99.90
17039;DHT22;8636;55.750;13.202;2024-01-25T08:34:28;5.20;99.90
17039;DHT22;8636;55.750;13.202;2024-01-25T08:36:56;5.20;99.90
17039;DHT22;8636;55.750;13.202;2024-01-25T08:39:32;5.20;99.90
17039;DHT22;8636;55.750;13.202;2024-01-25T08:41:59;5.20;99.90
17039;DHT22;8636;55.750;13.202;2024-01-25T08:44:39;5.20;99.90
17039;DHT22;8636;55.750;13.202;2024-01-25T08:47:11;5.20;99.90
17039;DHT22;8636;55.750;13.202;2024-01-25T08:49:45;5.20;99.90
17039;DHT22;8636;55.750;13.202;2024-01-25T08:52:14;5.20;99.90
17039;DHT22;8636;55.750;13.202;2024-01-25T08:54:42;5.20;99.90
17039;DHT22;8636;55.750;13.202;2024-01-25T08:57:17;5.30;99.90
17039;DHT22;8636;55.750;13.202;2024-01-25T08:59:46;5.20;99.90
17039;DHT22;8636;55.750;13.202;2024-01-25T09:02:22;5.20;99.90
17039;DHT22;8636;55.750;13.202;2024-01-25T09:04:53;5.20;99.90
17039;DHT22;8636;55.750;13.202;2024-01-25T09:07:28;5.10;99.90
17039;DHT22;8636;55.750;13.202;2024-01-25T09:10:04;5.10;99.90
17039;DHT22;8636;55.750;13.202;2024-01-25T09:12:39;5.00;99.90
17039;DHT22;8636;55.750;13.202;2024-01-25T09:15:09;4.90;99.90
17039;DHT22;8636;55.750;13.202;2024-01-25T09:17:37;4.70;99.90
17039;DHT22;8636;55.750;13.202;2024-01-25T09:20:12;4.70;99.90
17039;DHT22;8636;55.750;13.202;2024-01-25T09:22:40;4.60;99.90
17039;DHT22;8636;55.750;13.202;2024-01-25T09:25:10;4.60;99.90
17039;DHT22;8636;55.750;13.202;2024-01-25T09:27:45;4.60;99.90
17039;DHT22;8636;55.750;13.202;2024-01-25T09:30:15;4.60;99.90
17039;DHT22;8636;55.750;13.202;2024-01-25T09:32:44;4.60;99.90
17039;DHT22;8636;55.750;13.202;2024-01-25T09:35:19;4.60;99.90
17039;DHT22;8636;55.750;13.202;2024-01-25T09:37:47;4.70;99.90
17039;DHT22;8636;55.750;13.202;2024-01-25T09:40:26;4.70;99.90
17039;DHT22;8636;55.750;13.202;2024-01-25T09:42:54;4.60;99.90
17039;DHT22;8636;55.750;13.202;2024-01-25T09:45:24;4.60;99.90
17039;DHT22;8636;55.750;13.202;2024-01-25T09:47:59;4.70;99.90
17039;DHT22;8636;55.750;13.202;2024-01-25T09:50:31;4.60;99.90
17039;DHT22;8636;55.750;13.202;2024-01-25T09:53:11;4.60;99.90
17039;DHT22;8636;55.750;13.202;2024-01-25T09:55:43;4.60;99.90
17039;DHT22;8636;55.750;13.202;2024-01-25T09:58:20;4.70;99.90
17039;DHT22;8636;55.750;13.202;2024-01-25T10:00:50;4.80;99.90
17039;DHT22;8636;55.750;13.202;2024-01-25T10:03:19;4.80;99.90
17039;DHT22;8636;55.750;13.202;2024-01-25T10:06:00;4.70;99.90
17039;DHT22;8636;55.750;13.202;2024-01-25T10:08:31;4.60;99.90
17039;DHT22;8636;55.750;13.202;2024-01-25T10:11:06;4.50;99.90
17039;DHT22;8636;55.750;13.202;2024-01-25T10:13:40;4.50;99.90
17039;DHT22;8636;55.750;13.202;2024-01-25T10:16:18;4.40;99.90
17039;DHT22;8636;55.750;13.202;2024-01-25T10:18:47;4.50;99.90
17039;DHT22;8636;55.750;13.202;2024-01-25T10:21:22;4.50;99.90
17039;DHT22;8636;55.750;13.202;2024-01-25T10:23:50;4.50;99.90
17039;DHT22;8636;55.750;13.202;2024-01-25T10:26:21;4.50;99.90
17039;DHT22;8636;55.750;13.202;2024-01-25T10:28:56;4.50;99.90
17039;DHT22;8636;55.750;13.202;2024-01-25T10:31:30;4.40;99.90
17039;DHT22;8636;55.750;13.202;2024-01-25T10:34:06;4.40;99.90
17039;DHT22;8636;55.750;13.202;2024-01-25T10:36:36;4.40;99.90
17039;DHT22;8636;55.750;13.202;2024-01-25T10:39:13;4.50;99.90
17039;DHT22;8636;55.750;13.202;2024-01-25T10:41:42;4.60;99.90
17039;DHT22;8636;55.750;13.202;2024-01-25T10:44:12;4.60;99.90
17039;DHT22;8636;55.750;13.202;2024-01-25T10:46:49;4.60;99.90
17039;DHT22;8636;55.750;13.202;2024-01-25T10:49:18;4.60;99.90
17039;DHT22;8636;55.750;13.202;2024-01-25T10:51:53;4.60;99.90
17039;DHT22;8636;55.750;13.202;2024-01-25T10:54:22;4.70;99.90
17039;DHT22;8636;55.750;13.202;2024-01-25T10:56:50;4.60;99.90
17039;DHT22;8636;55.750;13.202;2024-01-25T10:59:28;4.70;99.90
17039;DHT22;8636;55.750;13.202;2024-01-25T11:02:00;4.70;99.90
17039;DHT22;8636;55.750;13.202;2024-01-25T11:04:35;4.80;99.90
17039;DHT22;8636;55.750;13.202;2024-01-25T11:07:07;4.80;99.90
17039;DHT22;8636;55.750;13.202;2024-01-25T11:09:51;4.90;99.90
17039;DHT22;8636;55.750;13.202;2024-01-25T11:12:19;4.80;99.90
17039;DHT22;8636;55.750;13.202;2024-01-25T11:14:54;4.80;99.90
17039;DHT22;8636;55.750;13.202;2024-01-25T11:17:31;4.80;99.90
17039;DHT22;8636;55.750;13.202;2024-01-25T11:20:00;4.80;99.90
17039;DHT22;8636;55.750;13.202;2024-01-25T11:22:35;4.90;99.90
17039;DHT22;8636;55.750;13.202;2024-01-25T11:25:12;4.90;99.90
17039;DHT22;8636;55.750;13.202;2024-01-25T11:27:48;4.90;99.90
17039;DHT22;8636;55.750;13.202;2024-01-25T11:30:18;5.00;99.90
17039;DHT22;8636;55.750;13.202;2024-01-25T11:32:54;4.90;99.90
17039;DHT22;8636;55.750;13.202;2024-01-25T11:35:22;5.00;99.90
17039;DHT22;8636;55.750;13.202;2024-01-25T11:37:57;5.00;99.90
17039;DHT22;8636;55.750;13.202;2024-01-25T11:40:25;5.10;99.90
17039;DHT22;8636;55.750;13.202;2024-01-25T11:43:05;5.10;99.90
17039;DHT22;8636;55.750;13.202;2024-01-25T11:45:37;5.10;99.90
17039;DHT22;8636;55.750;13.202;2024-01-25T11:48:18;5.00;99.90
17039;DHT22;8636;55.750;13.202;2024-01-25T11:50:47;5.00;99.90
17039;DHT22;8636;55.750;13.202;2024-01-25T11:53:21;5.00;99.90
17039;DHT22;8636;55.750;13.202;2024-01-25T11:55:49;5.10;99.90
17039;DHT22;8636;55.750;13.202;2024-01-25T11:58:24;5.10;99.90
17039;DHT22;8636;55.750;13.202;2024-01-25T12:00:52;5.10;99.90
17039;DHT22;8636;55.750;13.202;2024-01-25T12:03:28;5.00;99.90
17039;DHT22;8636;55.750;13.202;2024-01-25T12:05:56;5.00;99.90
17039;DHT22;8636;55.750;13.202;2024-01-25T12:08:38;5.10;99.90
17039;DHT22;8636;55.750;13.202;2024-01-25T12:11:07;5.10;99.90
17039;DHT22;8636;55.750;13.202;2024-01-25T12:13:42;5.10;99.90
17039;DHT22;8636;55.750;13.202;2024-01-25T12:16:13;5.10;99.90
17039;DHT22;8636;55.750;13.202;2024-01-25T12:18:49;5.10;99.90
17039;DHT22;8636;55.750;13.202;2024-01-25T12:21:18;5.20;99.90
17039;DHT22;8636;55.750;13.202;2024-01-25T12:23:53;5.10;99.90
17039;DHT22;8636;55.750;13.202;2024-01-25T12:26:21;5.20;99.90
17039;DHT22;8636;55.750;13.202;2024-01-25T12:28:56;5.20;99.90
17039;DHT22;8636;55.750;13.202;2024-01-25T12:31:24;5.20;99.90
17039;DHT22;8636;55.750;13.202;2024-01-25T12:34:00;5.20;99.90
17039;DHT22;8636;55.750;13.202;2024-01-25T12:36:29;5.20;99.90
17039;DHT22;8636;55.750;13.202;2024-01-25T12:38:57;5.30;99.90
17039;DHT22;8636;55.750;13.202;2024-01-25T12:41:32;5.30;99.90
17039;DHT22;8636;55.750;13.202;2024-01-25T12:44:00;5.30;99.90
17039;DHT22;8636;55.750;13.202;2024-01-25T12:46:28;5.20;99.90
17039;DHT22;8636;55.750;13.202;2024-01-25T12:49:04;5.20;99.90
17039;DHT22;8636;55.750;13.202;2024-01-25T12:51:33;5.20;99.90
17039;DHT22;8636;55.750;13.202;2024-01-25T12:54:01;5.20;99.90
17039;DHT22;8636;55.750;13.202;2024-01-25T12:56:36;5.20;99.90
17039;DHT22;8636;55.750;13.202;2024-01-25T12:59:04;5.10;99.90
17039;DHT22;8636;55.750;13.202;2024-01-25T13:01:32;5.20;99.90
17039;DHT22;8636;55.750;13.202;2024-01-25T13:04:09;5.10;99.90
17039;DHT22;8636;55.750;13.202;2024-01-25T13:06:38;5.10;99.90
17039;DHT22;8636;55.750;13.202;2024-01-25T13:09:19;5.10;99.90
17039;DHT22;8636;55.750;13.202;2024-01-25T13:11:47;5.10;99.90
17039;DHT22;8636;55.750;13.202;2024-01-25T13:14:16;5.10;99.90
17039;DHT22;8636;55.750;13.202;2024-01-25T13:16:51;5.00;99.90
17039;DHT22;8636;55.750;13.202;2024-01-25T13:19:20;5.00;99.90
17039;DHT22;8636;55.750;13.202;2024-01-25T13:21:50;5.00;99.90
17039;DHT22;8636;55.750;13.202;2024-01-25T13:24:25;5.00;99.90
17039;DHT22;8636;55.750;13.202;2024-01-25T13:26:53;5.00;99.90
17039;DHT22;8636;55.750;13.202;2024-01-25T13:29:20;5.00;99.90
17039;DHT22;8636;55.750;13.202;2024-01-25T13:31:55;4.90;99.90
17039;DHT22;8636;55.750;13.202;2024-01-25T13:34:24;5.00;99.90
17039;DHT22;8636;55.750;13.202;2024-01-25T13:36:59;4.90;99.90
17039;DHT22;8636;55.750;13.202;2024-01-25T13:39:27;4.90;99.90
17039;DHT22;8636;55.750;13.202;2024-01-25T13:41:55;4.90;99.90
17039;DHT22;8636;55.750;13.202;2024-01-25T13:44:31;4.90;99.90
17039;DHT22;8636;55.750;13.202;2024-01-25T13:47:01;4.90;99.90
17039;DHT22;8636;55.750;13.202;2024-01-25T13:49:37;4.80;99.90
17039;DHT22;8636;55.750;13.202;2024-01-25T13:52:05;4.80;99.90
17039;DHT22;8636;55.750;13.202;2024-01-25T13:54:33;4.80;99.90
17039;DHT22;8636;55.750;13.202;2024-01-25T13:57:08;4.80;99.90
17039;DHT22;8636;55.750;13.202;2024-01-25T13:59:36;4.70;99.90
17039;DHT22;8636;55.750;13.202;2024-01-25T14:02:10;4.70;99.90
17039;DHT22;8636;55.750;13.202;2024-01-25T14:04:46;4.70;99.90
17039;DHT22;8636;55.750;13.202;2024-01-25T14:07:15;4.70;99.90
17039;DHT22;8636;55.750;13.202;2024-01-25T14:09:50;4.60;99.90
17039;DHT22;8636;55.750;13.202;2024-01-25T14:12:20;4.60;99.90
17039;DHT22;8636;55.750;13.202;2024-01-25T14:14:55;4.60;99.90
17039;DHT22;8636;55.750;13.202;2024-01-25T14:17:23;4.60;99.90
17039;DHT22;8636;55.750;13.202;2024-01-25T14:19:59;4.50;99.90
17039;DHT22;8636;55.750;13.202;2024-01-25T14:22:29;4.50;99.90
17039;DHT22;8636;55.750;13.202;2024-01-25T14:25:04;4.40;99.90
17039;DHT22;8636;55.750;13.202;2024-01-25T14:27:34;4.40;99.90
17039;DHT22;8636;55.750;13.202;2024-01-25T14:30:10;4.40;99.90
17039;DHT22;8636;55.750;13.202;2024-01-25T14:32:38;4.30;99.90
17039;DHT22;8636;55.750;13.202;2024-01-25T14:35:14;4.20;99.90
17039;DHT22;8636;55.750;13.202;2024-01-25T14:37:42;4.20;99.90
17039;DHT22;8636;55.750;13.202;2024-01-25T14:40:17;4.10;99.90
17039;DHT22;8636;55.750;13.202;2024-01-25T14:43:05;4.10;99.90
17039;DHT22;8636;55.750;13.202;2024-01-25T14:45:42;4.00;99.90
17039;DHT22;8636;55.750;13.202;2024-01-25T14:48:11;3.90;99.90
17039;DHT22;8636;55.750;13.202;2024-01-25T14:50:47;3.90;99.90
17039;DHT22;8636;55.750;13.202;2024-01-25T14:53:15;3.80;99.90
17039;DHT22;8636;55.750;13.202;2024-01-25T14:55:51;3.60;99.90
17039;DHT22;8636;55.750;13.202;2024-01-25T14:58:19;3.70;99.90
17039;DHT22;8636;55.750;13.202;2024-01-25T15:00:55;3.70;99.90
17039;DHT22;8636;55.750;13.202;2024-01-25T15:03:23;3.60;99.90
17039;DHT22;8636;55.750;13.202;2024-01-25T15:06:01;3.50;99.90
17039;DHT22;8636;55.750;13.202;2024-01-25T15:08:36;3.40;99.90
17039;DHT22;8636;55.750;13.202;2024-01-25T15:11:11;3.50;99.90
17039;DHT22;8636;55.750;13.202;2024-01-25T15:13:39;3.50;99.90
17039;DHT22;8636;55.750;13.202;2024-01-25T15:16:13;3.50;99.90
17039;DHT22;8636;55.750;13.202;2024-01-25T15:18:44;3.40;99.90
17039;DHT22;8636;55.750;13.202;2024-01-25T15:21:20;3.40;99.90
17039;DHT22;8636;55.750;13.202;2024-01-25T15:23:48;3.30;99.90
17039;DHT22;8636;55.750;13.202;2024-01-25T15:26:23;3.20;99.90
17039;DHT22;8636;55.750;13.202;2024-01-25T15:28:51;3.10;99.90
17039;DHT22;8636;55.750;13.202;2024-01-25T15:31:26;3.00;99.90
17039;DHT22;8636;55.750;13.202;2024-01-25T15:33:54;3.00;99.90
17039;DHT22;8636;55.750;13.202;2024-01-25T15:36:29;2.80;99.90
17039;DHT22;8636;55.750;13.202;2024-01-25T15:38:57;2.80;99.90
17039;DHT22;8636;55.750;13.202;2024-01-25T15:41:33;2.80;99.90
17039;DHT22;8636;55.750;13.202;2024-01-25T15:44:01;2.70;99.90
17039;DHT22;8636;55.750;13.202;2024-01-25T15:46:35;2.70;99.90
17039;DHT22;8636;55.750;13.202;2024-01-25T15:49:03;2.70;99.90
17039;DHT22;8636;55.750;13.202;2024-01-25T15:51:39;2.60;99.90
17039;DHT22;8636;55.750;13.202;2024-01-25T15:54:07;2.50;99.90
17039;DHT22;8636;55.750;13.202;2024-01-25T15:56:42;2.30;99.90
17039;DHT22;8636;55.750;13.202;2024-01-25T15:59:10;2.30;99.90
17039;DHT22;8636;55.750;13.202;2024-01-25T16:01:44;2.20;99.90
17039;DHT22;8636;55.750;13.202;2024-01-25T16:04:11;2.10;99.90
17039;DHT22;8636;55.750;13.202;2024-01-25T16:06:54;2.00;99.90
17039;DHT22;8636;55.750;13.202;2024-01-25T16:09:35;1.90;99.90
17039;DHT22;8636;55.750;13.202;2024-01-25T16:12:10;1.70;99.90
17039;DHT22;8636;55.750;13.202;2024-01-25T16:14:40;1.70;99.90
17039;DHT22;8636;55.750;13.202;2024-01-25T16:17:15;1.60;99.90